LFRZ/SNR METAR and TAF weather

Enter ICAO airport designator
Station Type Date Time Source
LFRZ METAR 2020/01/22 16:30 UTC NOAA

LFRZ 221630Z AUTO 04011KT CAVOK 06/01 Q1029 NOSIG


Station Type Date Time Source
LFRZ Decoded METAR 2020/01/22 16:30 UTC NOAA

St-Nazaire, France (LFRZ) 47-19N 002-10W 4M
Jan 22, 2020 - 11:30 AM EST / 2020.01.22 1630 UTC
Wind: from the NE (040 degrees) at 13 MPH (11 KT):0
Visibility: greater than 7 mile(s):0
Temperature: 42 F (6 C)
Dew Point: 33 F (1 C)
Relative Humidity: 70%
Pressure (altimeter): 30.39 in. Hg (1029 hPa)
ob: LFRZ 221630Z AUTO 04011KT CAVOK 06/01 Q1029 NOSIG
cycle: 16

Station Type Date Time Source
LFRZ TAF 2020/01/22 18:21 UTC NOAA

TAF LFRZ 221700Z 2218/2318 04011KT CAVOK

Example: see airport list